Terminal Aerodrome Forecast
Issued by NWS

Home | Current Version | Previous Version | Text Only | Print | Product List | Glossary On
Versions: 1 2 3 4 5 6 7 8 9 10 11 12
000
FTUS42 TJSJ 031139
TAFIST
TAF
TIST 031139Z 0312/0412 11007KT P6SM VCSH FEW010 BKN050 OVC080
     FM031330 14010KT P6SM SCT025
     FM032330 11008KT P6SM SCT025=

USA.gov is the U.S. government's official web portal to all federal, state and local government web resources and services.